createdAt,value
2023-03-26T00:02:37.579Z,94616.00
2023-03-26T00:06:37.598Z,94613.00
2023-03-26T00:10:37.603Z,94607.00
2023-03-26T00:14:37.575Z,94611.00
2023-03-26T00:18:37.618Z,94616.00
2023-03-26T00:22:37.606Z,94601.00
2023-03-26T00:26:37.645Z,94601.00
2023-03-26T00:30:37.689Z,94607.00
2023-03-26T00:34:37.686Z,94613.00
2023-03-26T00:38:37.726Z,94595.00
2023-03-26T00:42:37.786Z,94589.00
2023-03-26T00:46:37.950Z,94595.00
2023-03-26T00:50:37.886Z,94591.00
2023-03-26T00:54:37.988Z,94589.00
2023-03-26T00:58:38.032Z,94591.00
2023-03-26T01:02:38.196Z,94583.00
2023-03-26T01:06:38.183Z,94571.00
2023-03-26T01:10:38.231Z,94566.00
2023-03-26T01:14:38.302Z,94569.00
2023-03-26T01:18:38.365Z,94566.00
2023-03-26T01:22:38.444Z,94569.00
2023-03-26T01:26:38.546Z,94573.00
2023-03-26T01:30:38.656Z,94571.00
2023-03-26T01:34:38.773Z,94560.00
2023-03-26T01:38:38.889Z,94552.00
2023-03-26T01:42:39.001Z,94542.00
2023-03-26T01:46:39.166Z,94546.00
2023-03-26T01:50:39.266Z,94556.00
2023-03-26T01:54:39.399Z,94550.00
2023-03-26T01:58:39.562Z,94558.00
2023-03-26T02:02:39.736Z,94558.00
2023-03-26T02:06:39.806Z,94558.00
2023-03-26T02:10:39.948Z,94554.00
2023-03-26T02:14:40.127Z,94562.00
2023-03-26T02:18:40.320Z,94567.00
2023-03-26T02:22:40.465Z,94562.00
2023-03-26T02:26:40.636Z,94558.00
2023-03-26T02:30:40.837Z,94560.00
2023-03-26T02:34:40.977Z,94556.00
2023-03-26T02:38:41.176Z,94552.00
2023-03-26T02:42:41.419Z,94548.00
2023-03-26T02:46:41.623Z,94548.00
2023-03-26T02:50:41.763Z,94542.00
2023-03-26T02:54:41.957Z,94542.00
2023-03-26T02:58:42.149Z,94552.00
2023-03-26T03:02:42.437Z,94542.00
2023-03-26T03:06:42.575Z,94534.00
2023-03-26T03:10:42.754Z,94536.00
2023-03-26T03:14:42.985Z,94524.00
2023-03-26T03:18:43.200Z,94520.00
2023-03-26T03:22:43.195Z,94522.00
2023-03-26T03:26:43.132Z,94522.00
2023-03-26T03:30:43.110Z,94514.00
2023-03-26T03:34:43.076Z,94509.00
2023-03-26T03:38:43.028Z,94505.00
2023-03-26T03:42:43.020Z,94501.00
2023-03-26T03:46:43.012Z,94505.00
2023-03-26T03:50:42.935Z,94507.00
2023-03-26T03:54:42.893Z,94501.00
2023-03-26T03:58:43.027Z,94491.00
2023-03-26T04:02:43.275Z,94481.00
2023-03-26T04:06:42.935Z,94483.00
2023-03-26T04:10:42.877Z,94495.00
2023-03-26T04:14:42.952Z,94487.00
2023-03-26T04:18:42.941Z,94479.00
2023-03-26T04:22:42.766Z,94481.00
2023-03-26T04:26:42.736Z,94473.00
2023-03-26T04:30:42.697Z,94464.00
2023-03-26T04:34:42.686Z,94462.00
2023-03-26T04:38:42.614Z,94456.00
2023-03-26T04:42:42.588Z,94454.00
2023-03-26T04:46:42.627Z,94448.00
2023-03-26T04:50:42.690Z,94438.00
2023-03-26T04:54:42.691Z,94436.00
2023-03-26T04:58:42.721Z,94428.00
2023-03-26T05:02:42.681Z,94424.00
2023-03-26T05:06:42.672Z,94417.00
2023-03-26T05:10:42.648Z,94409.00
2023-03-26T05:14:42.622Z,94411.00
2023-03-26T05:18:42.932Z,94415.00
2023-03-26T05:22:42.619Z,94426.00
2023-03-26T05:26:42.551Z,94424.00
2023-03-26T05:30:42.533Z,94424.00
2023-03-26T05:34:42.581Z,94422.00
2023-03-26T05:38:42.604Z,94417.00
2023-03-26T05:42:42.636Z,94407.00
2023-03-26T05:46:42.583Z,94401.00
2023-03-26T05:50:42.595Z,94389.00
2023-03-26T05:54:42.575Z,94385.00
2023-03-26T05:58:42.599Z,94372.00
2023-03-26T06:02:42.866Z,94364.00
2023-03-26T06:06:42.586Z,94362.00
2023-03-26T06:10:42.589Z,94362.00
2023-03-26T06:14:42.624Z,94354.00
2023-03-26T06:18:42.648Z,94346.00
2023-03-26T06:22:42.604Z,94348.00
2023-03-26T06:26:42.579Z,94342.00
2023-03-26T06:30:42.607Z,94332.00
2023-03-26T06:34:42.605Z,94330.00
2023-03-26T06:38:42.586Z,94336.00
2023-03-26T06:43:09.259Z,94323.00
2023-03-26T06:46:43.587Z,94328.00
2023-03-26T06:50:42.520Z,94309.00
2023-03-26T06:54:42.511Z,94297.00
2023-03-26T06:58:42.457Z,94303.00
2023-03-26T07:02:42.471Z,94287.00
2023-03-26T07:06:42.390Z,94277.00
2023-03-26T07:10:42.355Z,94260.00
2023-03-26T07:14:42.350Z,94250.00
2023-03-26T07:18:42.385Z,94228.00
2023-03-26T07:22:42.586Z,94217.00
2023-03-26T07:26:42.464Z,94219.00
2023-03-26T07:30:42.434Z,94236.00
2023-03-26T07:34:42.430Z,94234.00
2023-03-26T07:38:42.404Z,94238.00
2023-03-26T07:42:42.404Z,94219.00
2023-03-26T07:46:42.410Z,94215.00
2023-03-26T07:50:42.417Z,94205.00
2023-03-26T07:54:42.361Z,94177.00
2023-03-26T07:58:42.365Z,94160.00
2023-03-26T08:02:42.368Z,94142.00
2023-03-26T08:06:42.316Z,94134.00
2023-03-26T08:10:42.404Z,94115.00
2023-03-26T08:14:42.493Z,94105.00
2023-03-26T08:18:42.534Z,94109.00
2023-03-26T08:22:42.572Z,94115.00
2023-03-26T08:26:42.641Z,94113.00
2023-03-26T08:30:42.687Z,94101.00
2023-03-26T08:34:42.656Z,94081.00
2023-03-26T08:38:42.943Z,94074.00
2023-03-26T08:42:42.685Z,94060.00
2023-03-26T08:46:42.708Z,94056.00
2023-03-26T08:50:42.767Z,94042.00
2023-03-26T08:54:42.860Z,94027.00
2023-03-26T08:58:42.980Z,94030.00
2023-03-26T09:02:43.184Z,94019.00
2023-03-26T09:06:43.283Z,94011.00
2023-03-26T09:10:43.380Z,94027.00
2023-03-26T09:14:43.514Z,94025.00
2023-03-26T09:18:43.644Z,94025.00
2023-03-26T09:22:43.762Z,94023.00
2023-03-26T09:26:43.919Z,94034.00
2023-03-26T09:30:44.071Z,94029.00
2023-03-26T09:34:44.088Z,94027.00
2023-03-26T09:38:44.005Z,94029.00
2023-03-26T09:42:43.988Z,94017.00
2023-03-26T09:46:45.582Z,94011.00
2023-03-26T09:50:43.903Z,93995.00
2023-03-26T09:54:43.874Z,93987.00
2023-03-26T09:58:43.846Z,93983.00
2023-03-26T10:02:45.452Z,93970.00
2023-03-26T10:06:43.729Z,93968.00
2023-03-26T10:10:43.675Z,93958.00
2023-03-26T10:14:43.637Z,93966.00
2023-03-26T10:18:43.620Z,93954.00
2023-03-26T10:22:43.591Z,93948.00
2023-03-26T10:27:09.384Z,93944.00
2023-03-26T10:30:44.552Z,93950.00
2023-03-26T10:34:43.486Z,93956.00
2023-03-26T10:38:43.640Z,93946.00
2023-03-26T10:42:43.594Z,93950.00
2023-03-26T10:46:43.514Z,93952.00
2023-03-26T10:50:43.503Z,93944.00
2023-03-26T10:54:43.469Z,93938.00
2023-03-26T10:58:48.359Z,93944.00
2023-03-26T11:02:44.604Z,93944.00
2023-03-26T11:06:43.385Z,93944.00
2023-03-26T11:10:43.484Z,93938.00
2023-03-26T11:14:43.703Z,93928.00
2023-03-26T11:18:43.673Z,93919.00
2023-03-26T11:22:43.597Z,93913.00
2023-03-26T11:26:43.587Z,93909.00
2023-03-26T11:30:43.549Z,93899.00
2023-03-26T11:34:43.516Z,93893.00
2023-03-26T11:38:43.500Z,93887.00
2023-03-26T11:42:43.449Z,93878.00
2023-03-26T11:46:43.445Z,93874.00
2023-03-26T11:50:43.412Z,93856.00
2023-03-26T11:54:43.339Z,93846.00
2023-03-26T11:58:43.350Z,93846.00
2023-03-26T12:02:43.604Z,93848.00
2023-03-26T12:06:43.724Z,93841.00
2023-03-26T12:10:43.947Z,93843.00
2023-03-26T12:14:44.126Z,93831.00
2023-03-26T12:18:44.361Z,93817.00
2023-03-26T12:22:45.703Z,93815.00
2023-03-26T12:26:44.559Z,93819.00
2023-03-26T12:30:44.491Z,93829.00
2023-03-26T12:34:44.435Z,93831.00
2023-03-26T12:38:44.431Z,93837.00
2023-03-26T12:44:50.230Z,93835.00
2023-03-26T12:47:57.688Z,93839.00
2023-03-26T12:50:45.331Z,93835.00
2023-03-26T12:54:44.267Z,93833.00
2023-03-26T12:58:44.214Z,93837.00
2023-03-26T13:02:44.217Z,93848.00
2023-03-26T13:07:00.062Z,93868.00
2023-03-26T13:10:45.184Z,93874.00
2023-03-26T13:14:44.056Z,93887.00
2023-03-26T13:18:44.101Z,93893.00
2023-03-26T13:22:44.205Z,93897.00
2023-03-26T13:26:44.426Z,93903.00
2023-03-26T13:30:44.618Z,93915.00
2023-03-26T13:34:44.743Z,93919.00
2023-03-26T13:38:44.882Z,93923.00
2023-03-26T13:42:45.845Z,93909.00
2023-03-26T13:46:44.835Z,93905.00
2023-03-26T13:50:44.790Z,93913.00
2023-03-26T13:54:44.988Z,93909.00
2023-03-26T13:58:45.151Z,93899.00
2023-03-26T14:02:45.366Z,93899.00
2023-03-26T14:06:45.511Z,93899.00
2023-03-26T14:10:45.730Z,93905.00
2023-03-26T14:14:46.883Z,93913.00
2023-03-26T14:18:45.843Z,93909.00
2023-03-26T14:22:45.847Z,93905.00
2023-03-26T14:26:45.821Z,93905.00
2023-03-26T14:30:45.762Z,93899.00
2023-03-26T14:34:45.737Z,93899.00
2023-03-26T14:38:45.703Z,93885.00
2023-03-26T14:42:45.680Z,93883.00
2023-03-26T14:46:45.658Z,93880.00
2023-03-26T14:50:45.588Z,93872.00
2023-03-26T14:54:45.545Z,93880.00
2023-03-26T14:58:45.571Z,93899.00
2023-03-26T15:02:45.517Z,93895.00
2023-03-26T15:06:45.635Z,93903.00
2023-03-26T15:10:45.442Z,93911.00
2023-03-26T15:14:45.398Z,93909.00
2023-03-26T15:18:45.381Z,93895.00
2023-03-26T15:22:45.338Z,93903.00
2023-03-26T15:26:45.295Z,93903.00
2023-03-26T15:30:45.275Z,93905.00
2023-03-26T15:34:45.253Z,93889.00
2023-03-26T15:38:45.291Z,93870.00
2023-03-26T15:42:45.249Z,93852.00
2023-03-26T15:46:45.218Z,93852.00
2023-03-26T15:50:45.175Z,93829.00
2023-03-26T15:54:45.154Z,93821.00
2023-03-26T15:58:45.115Z,93823.00
2023-03-26T16:02:45.100Z,93827.00
2023-03-26T16:06:45.031Z,93823.00
2023-03-26T16:10:44.987Z,93819.00
2023-03-26T16:14:44.955Z,93831.00
2023-03-26T16:18:44.956Z,93827.00
2023-03-26T16:22:44.940Z,93825.00
2023-03-26T16:26:44.905Z,93839.00
2023-03-26T16:30:44.909Z,93825.00
2023-03-26T16:34:44.817Z,93807.00
2023-03-26T16:38:44.810Z,93799.00
2023-03-26T16:42:44.778Z,93786.00
2023-03-26T16:46:44.782Z,93780.00
2023-03-26T16:50:44.671Z,93770.00
2023-03-26T16:54:45.971Z,93768.00
2023-03-26T16:58:44.654Z,93772.00
2023-03-26T17:02:44.791Z,93791.00
2023-03-26T17:06:44.605Z,93797.00
2023-03-26T17:10:44.545Z,93788.00
2023-03-26T17:14:44.524Z,93784.00
2023-03-26T17:18:44.472Z,93774.00
2023-03-26T17:22:44.414Z,93786.00
2023-03-26T17:26:44.380Z,93791.00
2023-03-26T17:30:44.340Z,93784.00
2023-03-26T17:34:44.327Z,93788.00
2023-03-26T17:38:45.329Z,93789.00
2023-03-26T17:42:44.245Z,93770.00
2023-03-26T17:46:45.059Z,93774.00
2023-03-26T17:50:44.210Z,93772.00
2023-03-26T17:54:44.287Z,93793.00
2023-03-26T17:58:44.177Z,93811.00
2023-03-26T18:02:44.209Z,93819.00
2023-03-26T18:06:44.130Z,93823.00
2023-03-26T18:10:44.134Z,93831.00
2023-03-26T18:14:44.122Z,93841.00
2023-03-26T18:18:44.120Z,93856.00
2023-03-26T18:22:44.133Z,93856.00
2023-03-26T18:26:44.101Z,93817.00
2023-03-26T18:30:44.064Z,93786.00
2023-03-26T18:34:44.076Z,93793.00
2023-03-26T18:38:44.234Z,93805.00
2023-03-26T18:42:44.004Z,93799.00
2023-03-26T18:46:43.989Z,93789.00
2023-03-26T18:50:43.942Z,93795.00
2023-03-26T18:54:43.925Z,93789.00
2023-03-26T18:58:43.910Z,93797.00
2023-03-26T19:02:43.973Z,93801.00
2023-03-26T19:06:43.925Z,93809.00
2023-03-26T19:10:43.954Z,93801.00
2023-03-26T19:14:43.962Z,93797.00
2023-03-26T19:18:44.253Z,93801.00
2023-03-26T19:22:44.008Z,93811.00
2023-03-26T19:26:43.990Z,93817.00
2023-03-26T19:30:44.057Z,93827.00
2023-03-26T19:34:44.006Z,93823.00
2023-03-26T19:38:44.026Z,93815.00
2023-03-26T19:42:45.033Z,93817.00
2023-03-26T19:46:53.969Z,93815.00
2023-03-26T19:50:44.999Z,93809.00
2023-03-26T19:54:59.024Z,93803.00
2023-03-26T19:58:44.960Z,93801.00
2023-03-26T20:02:43.965Z,93803.00
2023-03-26T20:06:44.400Z,93801.00
2023-03-26T20:10:43.821Z,93795.00
2023-03-26T20:14:43.779Z,93791.00
2023-03-26T20:18:43.732Z,93793.00
2023-03-26T20:22:43.693Z,93801.00
2023-03-26T20:26:43.744Z,93809.00
2023-03-26T20:30:43.752Z,93807.00
2023-03-26T20:34:43.810Z,93805.00
2023-03-26T20:38:43.856Z,93805.00
2023-03-26T20:42:43.924Z,93807.00
2023-03-26T20:46:44.052Z,93801.00
2023-03-26T20:50:50.752Z,93801.00
2023-03-26T20:54:44.919Z,93799.00
2023-03-26T20:58:43.909Z,93807.00
2023-03-26T21:02:43.972Z,93813.00
2023-03-26T21:06:43.819Z,93803.00
2023-03-26T21:10:43.806Z,93807.00
2023-03-26T21:14:43.759Z,93803.00
2023-03-26T21:18:43.715Z,93805.00
2023-03-26T21:22:43.816Z,93803.00
2023-03-26T21:26:43.842Z,93799.00
2023-03-26T21:30:43.857Z,93799.00
2023-03-26T21:34:55.553Z,93795.00
2023-03-26T21:38:44.865Z,93791.00
2023-03-26T21:42:43.802Z,93795.00
2023-03-26T21:46:43.796Z,93793.00
2023-03-26T21:50:43.769Z,93789.00
2023-03-26T21:54:43.732Z,93786.00
2023-03-26T21:58:43.678Z,93788.00
2023-03-26T22:02:43.691Z,93786.00
2023-03-26T22:06:43.648Z,93786.00
2023-03-26T22:10:43.714Z,93786.00
2023-03-26T22:14:43.761Z,93788.00
2023-03-26T22:18:43.787Z,93786.00
2023-03-26T22:22:43.832Z,93782.00
2023-03-26T22:26:43.841Z,93776.00
2023-03-26T22:30:43.902Z,93776.00
2023-03-26T22:34:43.914Z,93774.00
2023-03-26T22:38:43.969Z,93772.00
2023-03-26T22:42:44.059Z,93762.00
2023-03-26T22:46:44.188Z,93762.00
2023-03-26T22:50:44.139Z,93768.00
2023-03-26T22:54:44.170Z,93766.00
2023-03-26T22:58:44.243Z,93764.00
2023-03-26T23:02:44.335Z,93750.00
2023-03-26T23:06:44.351Z,93752.00
2023-03-26T23:10:44.444Z,93756.00
2023-03-26T23:14:44.487Z,93762.00
2023-03-26T23:18:44.585Z,93760.00
2023-03-26T23:22:44.636Z,93770.00
2023-03-26T23:26:50.565Z,93760.00
2023-03-26T23:30:45.716Z,93760.00
2023-03-26T23:34:51.931Z,93752.00
2023-03-26T23:38:45.645Z,93754.00
2023-03-26T23:42:44.583Z,93756.00
2023-03-26T23:46:44.581Z,93756.00
2023-03-26T23:50:44.527Z,93768.00
2023-03-26T23:54:44.572Z,93770.00
2023-03-26T23:58:44.653Z,93772.00
